Flight Track Log - Related Links

Times and Time Zones

All times are in EDT time to prevent confusion due to time zone crossing. See the UPS1122 flight status page for this flight to view local times or setup timezone preferences in your user account.

Time Position Orientation Groundspeed Altitude Reporting Facility
EDT Latitude Longitude Course Direction KTS MPH feet Rate Location/Type
Fri 06:32:51 AM 41.9333 -72.6997 272° West 158 182 1,400  Level Boston Center
Fri 06:33:58 AM 41.9353 -72.7667 272° West 191 220 3,700 2,448 Climbing Boston Center
Fri 06:34:56 AM 41.9869 -72.8311 317° Northwest 275 316 6,500 2,950 Climbing Boston Center
Fri 06:35:58 AM 42.0453 -72.9069 316° Northwest 294 338 9,600 2,000 Climbing Boston Center
Fri 06:36:41 AM 42.0844 -72.9661 312° West 300 345 10,000 245 Climbing Boston Center
Fri 06:37:36 AM 42.1425 -73.0336 319° Northwest 294 338 10,000  Level Boston Center
Fri 06:38:35 AM 42.2025 -73.1100 317° Northwest 296 341 10,000  Level Boston Center
Fri 06:39:36 AM 42.2708 -73.1919 318° Northwest 346 398 10,000  Level Boston Center
Fri 06:40:38 AM 42.3389 -73.2800 316° Northwest 346 398 10,000  Level Boston Center
Fri 06:41:39 AM 42.4156 -73.3542 324° Northwest 342 394 10,000  Level Boston Center
Fri 06:42:37 AM 42.5025 -73.4117 334° Northwest 351 404 10,000  Level Boston Center
Fri 06:43:38 AM 42.5897 -73.4639 336° Northwest 350 403 10,000 -934 Level Boston Center
Fri 06:44:39 AM 42.6683 -73.5158 334° Northwest 273 314 8,100 -2,083 Descending Boston Center
Fri 06:45:39 AM 42.7367 -73.5594 335° Northwest 271 312 5,800 -1,623 Descending Boston Center
Fri 06:46:41 AM 42.7986 -73.6058 331° Northwest 255 293 4,800 -878 Descending Boston Center
Fri 06:47:42 AM 42.8522 -73.6636 322° Northwest 226 260 4,000 -738 Descending Boston Center
Fri 06:48:43 AM 42.8828 -73.7264 304° West 201 231 3,300 -843 Descending Boston Center
Fri 06:49:43 AM 42.8864 -73.7917 274° West 157 181 2,300 -650 Descending Boston Center
Fri 06:50:43 AM 42.8506 -73.8108 201° Southwest 129 148 2,000 -450 Descending Boston Center
Fri 06:51:43 AM 42.8153 -73.8100 179° South 129 148 1,400 -545 Descending Boston Center
Fri 06:52:44 AM 42.7839 -73.8064 175° South 99 114 900 -492 Descending Boston Center

Login

Don't have an account? Register now (free) for customized features, flight alerts, and more!